createdAt,value
2018-12-16T00:00:26.157Z,1.90
2018-12-16T00:02:52.523Z,1.90
2018-12-16T00:05:19.222Z,1.70
2018-12-16T00:07:45.341Z,1.70
2018-12-16T00:10:11.532Z,1.80
2018-12-16T00:12:37.775Z,1.80
2018-12-16T00:15:04.724Z,1.70
2018-12-16T00:17:31.049Z,1.70
2018-12-16T00:19:57.205Z,1.80
2018-12-16T00:22:29.892Z,1.70
2018-12-16T00:24:53.047Z,1.70
2018-12-16T00:27:19.188Z,1.60
2018-12-16T00:29:45.734Z,1.80
2018-12-16T00:32:11.890Z,1.80
2018-12-16T00:34:38.186Z,1.80
2018-12-16T00:37:04.504Z,1.70
2018-12-16T00:39:30.612Z,1.70
2018-12-16T00:41:56.889Z,1.60
2018-12-16T00:44:23.513Z,1.50
2018-12-16T00:46:49.880Z,1.60
2018-12-16T00:49:16.053Z,1.70
2018-12-16T00:51:42.281Z,1.70
2018-12-16T00:54:08.610Z,1.70
2018-12-16T00:56:34.840Z,1.70
2018-12-16T00:59:01.200Z,1.80
2018-12-16T01:01:27.617Z,1.80
2018-12-16T01:03:54.255Z,1.80
2018-12-16T01:06:20.538Z,1.70
2018-12-16T01:08:46.821Z,1.70
2018-12-16T01:11:13.274Z,1.80
2018-12-16T01:13:39.569Z,1.90
2018-12-16T01:16:06.002Z,1.90
2018-12-16T01:18:32.390Z,1.80
2018-12-16T01:20:58.688Z,1.70
2018-12-16T01:23:24.821Z,1.70
2018-12-16T01:25:51.152Z,1.80
2018-12-16T01:28:17.353Z,1.80
2018-12-16T01:30:43.830Z,1.70
2018-12-16T01:33:09.964Z,1.80
2018-12-16T01:35:36.050Z,1.70
2018-12-16T01:38:02.270Z,1.60
2018-12-16T01:40:28.444Z,1.70
2018-12-16T01:42:54.821Z,1.80
2018-12-16T01:45:21.168Z,1.80
2018-12-16T01:47:47.295Z,1.70
2018-12-16T01:50:13.534Z,1.70
2018-12-16T01:52:39.628Z,1.70
2018-12-16T01:55:07.914Z,1.70
2018-12-16T01:57:34.266Z,1.80
2018-12-16T02:00:00.527Z,1.60
2018-12-16T02:02:26.950Z,1.70
2018-12-16T02:04:53.305Z,1.60
2018-12-16T02:07:19.716Z,1.50
2018-12-16T02:09:46.117Z,1.40
2018-12-16T02:12:12.314Z,1.40
2018-12-16T02:14:38.486Z,1.50
2018-12-16T02:17:04.802Z,1.50
2018-12-16T02:19:38.056Z,1.50
2018-12-16T02:22:04.425Z,1.60
2018-12-16T02:24:30.619Z,1.60
2018-12-16T02:26:56.953Z,1.60
2018-12-16T02:29:23.074Z,1.60
2018-12-16T02:31:49.406Z,1.50
2018-12-16T02:34:15.615Z,1.40
2018-12-16T02:36:41.760Z,1.40
2018-12-16T02:39:15.021Z,1.40
2018-12-16T02:41:41.202Z,1.30
2018-12-16T02:44:07.315Z,1.50
2018-12-16T02:46:33.805Z,1.50
2018-12-16T02:49:00.014Z,1.60
2018-12-16T02:51:26.345Z,1.70
2018-12-16T02:53:52.574Z,1.60
2018-12-16T02:56:18.790Z,1.50
2018-12-16T02:58:45.009Z,1.60
2018-12-16T03:01:11.186Z,1.50
2018-12-16T03:03:37.378Z,1.50
2018-12-16T03:06:03.591Z,1.50
2018-12-16T03:08:29.814Z,1.60
2018-12-16T03:10:56.061Z,1.50
2018-12-16T03:13:22.292Z,1.60
2018-12-16T03:15:48.538Z,1.60
2018-12-16T03:18:14.740Z,1.50
2018-12-16T03:20:42.829Z,1.60
2018-12-16T03:23:12.429Z,1.60
2018-12-16T03:25:37.525Z,1.50
2018-12-16T03:28:03.717Z,1.50
2018-12-16T03:30:29.951Z,1.50
2018-12-16T03:32:56.197Z,1.50
2018-12-16T03:35:22.405Z,1.30
2018-12-16T03:37:48.636Z,1.20
2018-12-16T03:40:14.803Z,1.50
2018-12-16T03:42:40.925Z,1.50
2018-12-16T03:45:07.243Z,1.60
2018-12-16T03:47:33.477Z,1.50
2018-12-16T03:49:59.710Z,1.40
2018-12-16T03:52:25.900Z,1.40
2018-12-16T03:54:52.240Z,1.40
2018-12-16T03:57:18.572Z,1.30
2018-12-16T03:59:44.707Z,1.40
2018-12-16T04:02:10.917Z,1.40
2018-12-16T04:04:37.175Z,1.40
2018-12-16T04:07:03.517Z,1.30
2018-12-16T04:09:29.749Z,1.40
2018-12-16T04:11:55.865Z,1.40
2018-12-16T04:14:22.208Z,1.40
2018-12-16T04:16:48.343Z,1.40
2018-12-16T04:19:14.586Z,1.30
2018-12-16T04:21:40.867Z,1.40
2018-12-16T04:24:06.970Z,1.50
2018-12-16T04:26:33.289Z,1.50
2018-12-16T04:28:59.407Z,1.40
2018-12-16T04:31:25.622Z,1.40
2018-12-16T04:33:51.887Z,1.30
2018-12-16T04:36:18.089Z,1.40
2018-12-16T04:38:44.416Z,1.40
2018-12-16T04:41:10.574Z,1.40
2018-12-16T04:43:36.826Z,1.40
2018-12-16T04:46:03.104Z,1.30
2018-12-16T04:48:29.232Z,1.20
2018-12-16T04:50:55.401Z,1.10
2018-12-16T04:53:21.508Z,1.20
2018-12-16T04:55:47.633Z,1.30
2018-12-16T04:58:13.727Z,1.10
2018-12-16T05:00:40.015Z,1.00
2018-12-16T05:03:06.255Z,1.10
2018-12-16T05:05:32.478Z,1.10
2018-12-16T05:07:59.024Z,1.10
2018-12-16T05:10:29.655Z,1.30
2018-12-16T05:12:56.272Z,1.30
2018-12-16T05:15:22.683Z,1.20
2018-12-16T05:17:49.118Z,1.10
2018-12-16T05:20:15.532Z,1.10
2018-12-16T05:22:41.657Z,1.10
2018-12-16T05:25:07.982Z,1.10
2018-12-16T05:27:34.209Z,1.10
2018-12-16T05:30:00.544Z,1.20
2018-12-16T05:32:26.648Z,1.10
2018-12-16T05:34:52.993Z,1.10
2018-12-16T05:37:21.365Z,1.10
2018-12-16T05:39:47.709Z,1.10
2018-12-16T05:42:14.781Z,1.10
2018-12-16T05:44:40.905Z,1.10
2018-12-16T05:47:07.535Z,0.90
2018-12-16T05:49:34.421Z,1.00
2018-12-16T05:52:00.642Z,1.10
2018-12-16T05:54:27.813Z,1.20
2018-12-16T05:56:55.062Z,1.00
2018-12-16T05:59:22.243Z,1.00
2018-12-16T06:01:48.472Z,1.10
2018-12-16T06:04:14.604Z,1.20
2018-12-16T06:06:40.957Z,1.20
2018-12-16T06:09:07.301Z,1.00
2018-12-16T06:11:33.378Z,0.90
2018-12-16T06:13:59.569Z,0.90
2018-12-16T06:16:25.771Z,0.90
2018-12-16T06:18:52.845Z,0.90
2018-12-16T06:21:19.074Z,0.80
2018-12-16T06:23:45.298Z,0.70
2018-12-16T06:26:12.115Z,0.70
2018-12-16T06:28:39.197Z,0.60
2018-12-16T06:31:05.518Z,0.70
2018-12-16T06:33:31.764Z,0.90
2018-12-16T06:35:58.215Z,0.90
2018-12-16T06:38:24.418Z,0.80
2018-12-16T06:40:50.582Z,0.80
2018-12-16T06:43:17.813Z,0.70
2018-12-16T06:45:44.304Z,0.80
2018-12-16T06:48:10.447Z,0.70
2018-12-16T06:50:36.677Z,0.70
2018-12-16T06:53:09.814Z,0.80
2018-12-16T06:55:36.025Z,0.60
2018-12-16T06:58:02.225Z,0.70
2018-12-16T07:00:28.346Z,0.70
2018-12-16T07:02:54.454Z,0.70
2018-12-16T07:05:21.126Z,0.70
2018-12-16T07:07:47.677Z,0.80
2018-12-16T07:10:14.309Z,0.80
2018-12-16T07:12:40.721Z,0.90
2018-12-16T07:15:08.107Z,0.90
2018-12-16T07:17:34.524Z,1.00
2018-12-16T07:20:00.960Z,1.00
2018-12-16T07:22:27.285Z,0.80
2018-12-16T07:24:53.654Z,0.80
2018-12-16T07:27:20.020Z,0.80
2018-12-16T07:29:46.208Z,0.90
2018-12-16T07:32:12.351Z,0.90
2018-12-16T07:34:38.576Z,1.00
2018-12-16T07:37:04.705Z,0.90
2018-12-16T07:39:30.958Z,0.80
2018-12-16T07:41:57.395Z,0.90
2018-12-16T07:44:23.565Z,1.00
2018-12-16T07:46:49.814Z,0.90
2018-12-16T07:49:16.269Z,0.80
2018-12-16T07:51:42.399Z,0.80
2018-12-16T07:54:08.686Z,0.80
2018-12-16T07:56:35.161Z,0.70
2018-12-16T07:59:01.497Z,0.70
2018-12-16T08:01:27.693Z,0.90
2018-12-16T08:03:53.857Z,0.80
2018-12-16T08:06:20.112Z,0.80
2018-12-16T08:08:46.352Z,0.90
2018-12-16T08:11:12.694Z,1.00
2018-12-16T08:13:38.868Z,1.00
2018-12-16T08:16:05.134Z,0.90
2018-12-16T08:18:31.254Z,0.90
2018-12-16T08:20:57.485Z,0.90
2018-12-16T08:23:23.735Z,0.90
2018-12-16T08:25:49.869Z,0.80
2018-12-16T08:28:16.137Z,0.70
2018-12-16T08:30:42.577Z,0.70
2018-12-16T08:33:08.676Z,0.70
2018-12-16T08:35:34.788Z,0.60
2018-12-16T08:38:01.157Z,0.70
2018-12-16T08:40:27.307Z,0.80
2018-12-16T08:42:53.912Z,0.80
2018-12-16T08:45:20.043Z,0.80
2018-12-16T08:47:46.289Z,0.80
2018-12-16T08:50:12.538Z,0.70
2018-12-16T08:52:38.650Z,0.80
2018-12-16T08:55:05.615Z,0.60
2018-12-16T08:57:31.801Z,0.80
2018-12-16T08:59:57.985Z,0.80
2018-12-16T09:02:24.441Z,0.50
2018-12-16T09:04:50.535Z,0.80
2018-12-16T09:07:16.895Z,1.10
2018-12-16T09:09:43.355Z,1.00
2018-12-16T09:12:09.504Z,1.00
2018-12-16T09:14:35.854Z,1.10
2018-12-16T09:17:02.013Z,1.10
2018-12-16T09:19:28.120Z,0.80
2018-12-16T09:21:54.497Z,0.90
2018-12-16T09:24:20.717Z,0.80
2018-12-16T09:26:46.904Z,0.90
2018-12-16T09:29:13.305Z,1.10
2018-12-16T09:31:39.530Z,1.10
2018-12-16T09:34:05.865Z,1.20
2018-12-16T09:36:32.099Z,1.30
2018-12-16T09:38:58.335Z,1.40
2018-12-16T09:41:24.563Z,1.40
2018-12-16T09:43:52.237Z,1.50
2018-12-16T09:46:18.458Z,1.60
2018-12-16T09:48:51.693Z,1.60
2018-12-16T09:51:18.083Z,1.70
2018-12-16T09:53:44.260Z,1.70
2018-12-16T09:56:10.588Z,1.70
2018-12-16T09:58:36.941Z,1.30
2018-12-16T10:01:03.253Z,1.20
2018-12-16T10:03:29.416Z,1.50
2018-12-16T10:05:55.634Z,1.80
2018-12-16T10:08:21.765Z,1.70
2018-12-16T10:10:48.047Z,1.60
2018-12-16T10:13:14.513Z,1.60
2018-12-16T10:15:40.835Z,1.60
2018-12-16T10:18:06.954Z,1.70
2018-12-16T10:20:33.085Z,1.60
2018-12-16T10:22:59.245Z,1.30
2018-12-16T10:25:25.450Z,1.40
2018-12-16T10:27:51.573Z,1.50
2018-12-16T10:30:17.835Z,1.70
2018-12-16T10:32:44.069Z,1.70
2018-12-16T10:35:10.409Z,1.60
2018-12-16T10:37:36.549Z,1.80
2018-12-16T10:40:05.040Z,1.70
2018-12-16T10:42:31.370Z,1.70
2018-12-16T10:44:57.810Z,2.10
2018-12-16T10:47:24.713Z,2.00
2018-12-16T10:49:50.859Z,2.00
2018-12-16T10:52:17.850Z,2.20
2018-12-16T10:54:44.148Z,2.20
2018-12-16T10:57:10.264Z,2.60
2018-12-16T10:59:36.391Z,2.60
2018-12-16T11:02:02.833Z,2.60
2018-12-16T11:04:29.194Z,2.60
2018-12-16T11:06:55.520Z,2.80
2018-12-16T11:09:21.817Z,2.80
2018-12-16T11:11:48.969Z,2.70
2018-12-16T11:14:15.296Z,2.70
2018-12-16T11:16:41.470Z,2.80
2018-12-16T11:19:07.596Z,2.90
2018-12-16T11:21:34.040Z,3.10
2018-12-16T11:24:00.410Z,3.20
2018-12-16T11:26:27.414Z,3.80
2018-12-16T11:28:53.743Z,4.00
2018-12-16T11:31:19.952Z,3.90
2018-12-16T11:33:46.050Z,3.70
2018-12-16T11:36:12.367Z,3.30
2018-12-16T11:38:40.448Z,3.20
2018-12-16T11:41:06.608Z,3.50
2018-12-16T11:43:32.816Z,4.10
2018-12-16T11:45:59.068Z,4.60
2018-12-16T11:48:26.386Z,4.50
2018-12-16T11:50:53.861Z,5.00
2018-12-16T11:53:27.062Z,6.30
2018-12-16T11:55:55.622Z,5.50
2018-12-16T11:58:21.871Z,5.10
2018-12-16T12:00:49.035Z,4.70
2018-12-16T12:03:15.304Z,4.90
2018-12-16T12:05:41.433Z,5.30
2018-12-16T12:08:07.712Z,6.00
2018-12-16T12:10:34.614Z,5.80
2018-12-16T12:13:00.891Z,4.90
2018-12-16T12:15:27.142Z,4.60
2018-12-16T12:17:53.497Z,4.70
2018-12-16T12:20:20.683Z,4.10
2018-12-16T12:22:46.934Z,4.10
2018-12-16T12:25:19.659Z,5.10
2018-12-16T12:27:41.305Z,6.00
2018-12-16T12:30:07.693Z,6.10
2018-12-16T12:32:33.849Z,5.80
2018-12-16T12:35:00.811Z,5.80
2018-12-16T12:37:28.250Z,5.90
2018-12-16T12:39:54.463Z,5.60
2018-12-16T12:42:22.917Z,4.80
2018-12-16T12:44:49.218Z,3.60
2018-12-16T12:47:16.343Z,3.00
2018-12-16T12:49:45.124Z,2.70
2018-12-16T12:52:11.710Z,2.70
2018-12-16T12:54:37.838Z,2.70
2018-12-16T12:57:07.075Z,2.70
2018-12-16T12:59:34.063Z,2.70
2018-12-16T13:02:01.190Z,2.60
2018-12-16T13:04:27.322Z,2.70
2018-12-16T13:06:53.555Z,2.80
2018-12-16T13:09:19.772Z,3.20
2018-12-16T13:11:46.834Z,3.20
2018-12-16T13:14:13.516Z,3.30
2018-12-16T13:16:39.723Z,3.20
2018-12-16T13:19:05.821Z,3.30
2018-12-16T13:21:32.287Z,3.10
2018-12-16T13:23:58.518Z,3.10
2018-12-16T13:26:24.900Z,2.70
2018-12-16T13:28:51.055Z,2.70
2018-12-16T13:31:17.319Z,3.10
2018-12-16T13:33:43.491Z,3.10
2018-12-16T13:36:10.042Z,3.00
2018-12-16T13:38:37.960Z,2.80
2018-12-16T13:41:04.197Z,2.60
2018-12-16T13:43:30.489Z,2.60
2018-12-16T13:45:56.617Z,2.60
2018-12-16T13:48:22.864Z,2.40
2018-12-16T13:50:49.102Z,2.20
2018-12-16T13:53:15.258Z,2.00
2018-12-16T13:55:41.474Z,2.00
2018-12-16T13:58:09.682Z,2.00
2018-12-16T14:00:35.957Z,1.90
2018-12-16T14:03:03.046Z,1.80
2018-12-16T14:05:30.042Z,1.60
2018-12-16T14:07:57.690Z,1.70
2018-12-16T14:10:23.893Z,1.50
2018-12-16T14:12:50.778Z,1.50
2018-12-16T14:15:17.209Z,1.40
2018-12-16T14:17:43.660Z,1.30
2018-12-16T14:20:09.824Z,1.40
2018-12-16T14:22:36.252Z,1.30
2018-12-16T14:25:03.812Z,1.40
2018-12-16T14:27:30.958Z,1.40
2018-12-16T14:29:57.174Z,1.40
2018-12-16T14:32:23.531Z,1.30
2018-12-16T14:34:50.581Z,1.20
2018-12-16T14:37:16.835Z,1.10
2018-12-16T14:39:43.754Z,1.00
2018-12-16T14:42:09.928Z,1.00
2018-12-16T14:44:37.089Z,1.00
2018-12-16T14:47:03.368Z,1.00
2018-12-16T14:49:29.761Z,0.80
2018-12-16T14:51:57.044Z,0.90
2018-12-16T14:54:23.319Z,0.90
2018-12-16T14:56:49.579Z,1.00
2018-12-16T14:59:17.331Z,1.10
2018-12-16T15:01:44.589Z,1.10
2018-12-16T15:04:19.038Z,1.10
2018-12-16T15:06:45.357Z,1.10
2018-12-16T15:09:11.701Z,1.10
2018-12-16T15:11:38.024Z,1.10
2018-12-16T15:14:05.148Z,1.10
2018-12-16T15:16:31.484Z,1.00
2018-12-16T15:18:58.368Z,1.20
2018-12-16T15:21:25.617Z,1.20
2018-12-16T15:23:51.869Z,1.30
2018-12-16T15:26:19.171Z,1.20
2018-12-16T15:28:45.377Z,1.20
2018-12-16T15:31:12.189Z,1.20
2018-12-16T15:33:38.398Z,1.20
2018-12-16T15:36:04.645Z,1.20
2018-12-16T15:38:30.790Z,1.20
2018-12-16T15:40:56.900Z,1.10
2018-12-16T15:43:23.128Z,1.20
2018-12-16T15:45:49.261Z,1.30
2018-12-16T15:48:15.507Z,1.30
2018-12-16T15:50:43.433Z,1.30
2018-12-16T15:53:09.701Z,1.30
2018-12-16T15:55:36.998Z,1.40
2018-12-16T15:58:03.421Z,1.30
2018-12-16T16:00:29.534Z,1.30
2018-12-16T16:02:56.657Z,1.30
2018-12-16T16:05:23.645Z,1.30
2018-12-16T16:07:49.740Z,1.30
2018-12-16T16:10:16.035Z,1.20
2018-12-16T16:12:42.317Z,1.30
2018-12-16T16:15:08.679Z,1.20
2018-12-16T16:17:34.908Z,1.20
2018-12-16T16:20:01.250Z,1.30
2018-12-16T16:22:27.570Z,1.20
2018-12-16T16:24:53.724Z,1.20
2018-12-16T16:27:20.615Z,1.20
2018-12-16T16:29:53.862Z,1.20
2018-12-16T16:32:20.053Z,1.30
2018-12-16T16:34:46.322Z,1.10
2018-12-16T16:37:12.676Z,1.10
2018-12-16T16:39:39.616Z,1.20
2018-12-16T16:42:05.858Z,1.20
2018-12-16T16:44:32.891Z,1.30
2018-12-16T16:46:59.928Z,1.30
2018-12-16T16:49:26.116Z,1.30
2018-12-16T16:51:52.403Z,1.30
2018-12-16T16:54:18.679Z,1.30
2018-12-16T16:56:45.056Z,1.30
2018-12-16T16:59:11.245Z,1.30
2018-12-16T17:01:37.620Z,1.30
2018-12-16T17:04:03.936Z,1.30
2018-12-16T17:06:31.279Z,1.30
2018-12-16T17:08:57.440Z,1.30
2018-12-16T17:11:24.648Z,1.00
2018-12-16T17:13:51.194Z,1.10
2018-12-16T17:16:17.390Z,1.20
2018-12-16T17:18:44.083Z,1.40
2018-12-16T17:21:10.345Z,1.40
2018-12-16T17:23:36.494Z,1.50
2018-12-16T17:26:03.576Z,1.30
2018-12-16T17:28:31.179Z,1.20
2018-12-16T17:31:00.754Z,1.30
2018-12-16T17:33:26.894Z,1.30
2018-12-16T17:35:53.287Z,1.30
2018-12-16T17:38:20.647Z,1.30
2018-12-16T17:40:46.943Z,1.40
2018-12-16T17:43:13.962Z,1.40
2018-12-16T17:45:40.767Z,1.40
2018-12-16T17:48:06.991Z,1.50
2018-12-16T17:50:34.067Z,1.50
2018-12-16T17:53:00.476Z,1.40
2018-12-16T17:55:26.699Z,1.50
2018-12-16T17:57:53.315Z,1.40
2018-12-16T18:00:22.692Z,1.40
2018-12-16T18:02:49.128Z,1.50
2018-12-16T18:05:15.434Z,1.40
2018-12-16T18:07:41.667Z,1.60
2018-12-16T18:10:08.007Z,1.60
2018-12-16T18:12:34.329Z,1.40
2018-12-16T18:15:01.560Z,1.10
2018-12-16T18:17:27.732Z,1.20
2018-12-16T18:19:54.924Z,1.10
2018-12-16T18:22:21.166Z,1.10
2018-12-16T18:24:47.345Z,1.20
2018-12-16T18:27:13.543Z,1.10
2018-12-16T18:29:39.735Z,1.10
2018-12-16T18:32:06.124Z,1.00
2018-12-16T18:34:32.405Z,0.90
2018-12-16T18:36:58.626Z,1.10
2018-12-16T18:39:24.997Z,1.10
2018-12-16T18:41:51.666Z,1.00
2018-12-16T18:44:18.047Z,0.90
2018-12-16T18:46:44.370Z,0.90
2018-12-16T18:49:10.870Z,0.90
2018-12-16T18:51:37.133Z,0.90
2018-12-16T18:54:03.490Z,0.80
2018-12-16T18:56:29.691Z,0.80
2018-12-16T18:58:55.966Z,0.60
2018-12-16T19:01:22.246Z,0.70
2018-12-16T19:03:48.422Z,0.60
2018-12-16T19:06:14.850Z,0.60
2018-12-16T19:08:41.012Z,0.60
2018-12-16T19:11:07.227Z,0.50
2018-12-16T19:13:33.493Z,0.50
2018-12-16T19:15:59.706Z,0.40
2018-12-16T19:18:27.164Z,0.40
2018-12-16T19:20:53.558Z,0.40
2018-12-16T19:23:19.739Z,0.50
2018-12-16T19:25:45.904Z,0.50
2018-12-16T19:28:12.202Z,0.40
2018-12-16T19:30:38.634Z,0.50
2018-12-16T19:33:05.095Z,0.60
2018-12-16T19:35:31.284Z,0.60
2018-12-16T19:37:57.563Z,0.60
2018-12-16T19:40:23.873Z,0.70
2018-12-16T19:42:50.382Z,0.70
2018-12-16T19:45:23.624Z,0.80
2018-12-16T19:47:49.951Z,0.80
2018-12-16T19:50:16.230Z,0.70
2018-12-16T19:52:42.460Z,0.70
2018-12-16T19:55:08.954Z,0.70
2018-12-16T19:57:35.242Z,0.60
2018-12-16T20:00:08.603Z,0.70
2018-12-16T20:02:34.727Z,0.80
2018-12-16T20:05:03.013Z,0.80
2018-12-16T20:07:29.161Z,0.90
2018-12-16T20:09:55.406Z,0.90
2018-12-16T20:12:21.582Z,1.00
2018-12-16T20:14:48.007Z,1.10
2018-12-16T20:17:14.435Z,1.10
2018-12-16T20:19:40.642Z,1.10
2018-12-16T20:22:06.801Z,1.20
2018-12-16T20:24:33.135Z,1.20
2018-12-16T20:26:59.402Z,1.20
2018-12-16T20:29:25.757Z,1.20
2018-12-16T20:31:52.157Z,1.20
2018-12-16T20:34:20.363Z,1.30
2018-12-16T20:36:46.557Z,1.30
2018-12-16T20:39:12.762Z,1.30
2018-12-16T20:41:39.089Z,1.40
2018-12-16T20:44:05.431Z,1.30
2018-12-16T20:46:31.856Z,1.40
2018-12-16T20:48:58.089Z,1.50
2018-12-16T20:51:24.353Z,1.40
2018-12-16T20:53:50.730Z,1.50
2018-12-16T20:56:16.917Z,1.50
2018-12-16T20:58:43.201Z,1.40
2018-12-16T21:01:16.494Z,1.30
2018-12-16T21:03:42.906Z,1.40
2018-12-16T21:06:09.215Z,1.40
2018-12-16T21:08:35.513Z,1.40
2018-12-16T21:11:03.953Z,1.40
2018-12-16T21:13:36.430Z,1.50
2018-12-16T21:16:09.016Z,1.50
2018-12-16T21:18:35.513Z,1.50
2018-12-16T21:21:01.725Z,1.40
2018-12-16T21:23:28.153Z,1.40
2018-12-16T21:25:54.336Z,1.40
2018-12-16T21:28:20.570Z,1.50
2018-12-16T21:30:46.845Z,1.50
2018-12-16T21:33:13.018Z,1.40
2018-12-16T21:35:39.303Z,1.30
2018-12-16T21:38:05.538Z,1.40
2018-12-16T21:40:31.889Z,1.40
2018-12-16T21:42:58.171Z,1.50
2018-12-16T21:45:24.505Z,1.50
2018-12-16T21:47:50.658Z,1.40
2018-12-16T21:50:16.783Z,1.50
2018-12-16T21:52:42.980Z,1.40
2018-12-16T21:55:09.181Z,1.40
2018-12-16T21:57:35.306Z,1.50
2018-12-16T22:00:01.879Z,1.30
2018-12-16T22:02:28.255Z,1.40
2018-12-16T22:04:54.430Z,1.40
2018-12-16T22:07:20.586Z,1.50
2018-12-16T22:09:46.811Z,1.60
2018-12-16T22:12:13.016Z,1.60
2018-12-16T22:14:39.181Z,1.60
2018-12-16T22:17:05.514Z,1.60
2018-12-16T22:19:31.619Z,1.50
2018-12-16T22:21:57.733Z,1.60
2018-12-16T22:24:23.921Z,1.60
2018-12-16T22:26:50.181Z,1.70
2018-12-16T22:29:16.309Z,1.80
2018-12-16T22:31:42.482Z,1.70
2018-12-16T22:34:08.706Z,1.70
2018-12-16T22:36:34.856Z,1.70
2018-12-16T22:39:01.107Z,1.70
2018-12-16T22:41:27.344Z,1.60
2018-12-16T22:43:54.037Z,1.60
2018-12-16T22:46:20.578Z,1.70
2018-12-16T22:48:46.698Z,1.70
2018-12-16T22:51:12.863Z,1.70
2018-12-16T22:53:39.006Z,1.80
2018-12-16T22:56:05.207Z,1.80
2018-12-16T22:58:31.517Z,1.60
2018-12-16T23:01:04.026Z,1.70
2018-12-16T23:03:30.281Z,1.60
2018-12-16T23:05:56.383Z,1.60
2018-12-16T23:08:22.493Z,1.50
2018-12-16T23:10:48.844Z,1.70
2018-12-16T23:13:14.952Z,1.70
2018-12-16T23:15:41.091Z,1.60
2018-12-16T23:18:07.427Z,1.60
2018-12-16T23:20:33.645Z,1.70
2018-12-16T23:22:59.768Z,1.70
2018-12-16T23:25:26.102Z,1.70
2018-12-16T23:27:54.300Z,1.50
2018-12-16T23:30:20.513Z,1.60
2018-12-16T23:32:46.758Z,1.40
2018-12-16T23:35:13.117Z,1.60
2018-12-16T23:37:39.439Z,1.70
2018-12-16T23:40:05.846Z,1.60
2018-12-16T23:42:32.072Z,1.60
2018-12-16T23:44:58.183Z,1.70
2018-12-16T23:47:24.400Z,1.70
2018-12-16T23:49:50.640Z,1.80
2018-12-16T23:52:16.777Z,1.80
2018-12-16T23:54:44.436Z,1.60
2018-12-16T23:57:10.921Z,1.70
2018-12-16T23:59:37.066Z,1.80
